sensor_id;sensor_type;location;lat;lon;timestamp;temperature;humidity
66608;DHT22;53462;39.616;8.824;2023-03-01T00:01:09;6.20;99.90
66608;DHT22;53462;39.616;8.824;2023-03-01T00:03:35;6.20;99.90
66608;DHT22;53462;39.616;8.824;2023-03-01T00:06:02;6.20;99.90
66608;DHT22;53462;39.616;8.824;2023-03-01T00:08:29;6.10;99.90
66608;DHT22;53462;39.616;8.824;2023-03-01T00:11:16;6.10;99.90
66608;DHT22;53462;39.616;8.824;2023-03-01T00:13:44;6.10;99.90
66608;DHT22;53462;39.616;8.824;2023-03-01T00:16:13;6.10;99.90
66608;DHT22;53462;39.616;8.824;2023-03-01T00:18:40;6.10;99.90
66608;DHT22;53462;39.616;8.824;2023-03-01T00:21:06;6.00;99.90
66608;DHT22;53462;39.616;8.824;2023-03-01T00:23:34;6.00;99.90
66608;DHT22;53462;39.616;8.824;2023-03-01T00:26:00;6.10;99.90
66608;DHT22;53462;39.616;8.824;2023-03-01T00:28:26;6.10;99.90
66608;DHT22;53462;39.616;8.824;2023-03-01T00:30:52;6.10;99.90
66608;DHT22;53462;39.616;8.824;2023-03-01T00:33:18;6.10;99.90
66608;DHT22;53462;39.616;8.824;2023-03-01T00:35:44;6.10;99.90
66608;DHT22;53462;39.616;8.824;2023-03-01T00:38:10;6.10;99.90
66608;DHT22;53462;39.616;8.824;2023-03-01T00:40:36;6.20;99.90
66608;DHT22;53462;39.616;8.824;2023-03-01T00:43:03;6.20;99.90
66608;DHT22;53462;39.616;8.824;2023-03-01T00:45:29;6.20;99.90
66608;DHT22;53462;39.616;8.824;2023-03-01T00:47:58;6.20;99.90
66608;DHT22;53462;39.616;8.824;2023-03-01T00:50:24;6.20;99.90
66608;DHT22;53462;39.616;8.824;2023-03-01T00:52:56;6.30;99.90
66608;DHT22;53462;39.616;8.824;2023-03-01T00:55:23;6.30;99.90
66608;DHT22;53462;39.616;8.824;2023-03-01T00:57:49;6.40;99.90
66608;DHT22;53462;39.616;8.824;2023-03-01T01:00:15;6.40;99.90
66608;DHT22;53462;39.616;8.824;2023-03-01T01:02:41;6.40;99.90
66608;DHT22;53462;39.616;8.824;2023-03-01T01:05:08;6.40;99.90
66608;DHT22;53462;39.616;8.824;2023-03-01T01:07:34;6.40;99.90
66608;DHT22;53462;39.616;8.824;2023-03-01T01:09:59;6.50;99.90
66608;DHT22;53462;39.616;8.824;2023-03-01T01:12:25;6.50;99.90
66608;DHT22;53462;39.616;8.824;2023-03-01T01:14:51;6.50;99.90
66608;DHT22;53462;39.616;8.824;2023-03-01T01:17:17;6.60;99.90
66608;DHT22;53462;39.616;8.824;2023-03-01T01:19:43;6.60;99.90
66608;DHT22;53462;39.616;8.824;2023-03-01T01:22:09;6.60;99.90
66608;DHT22;53462;39.616;8.824;2023-03-01T01:24:35;6.70;99.90
66608;DHT22;53462;39.616;8.824;2023-03-01T01:27:01;6.70;99.90
66608;DHT22;53462;39.616;8.824;2023-03-01T01:29:27;6.80;99.90
66608;DHT22;53462;39.616;8.824;2023-03-01T01:31:53;6.70;99.90
66608;DHT22;53462;39.616;8.824;2023-03-01T01:34:20;6.80;99.90
66608;DHT22;53462;39.616;8.824;2023-03-01T01:36:51;6.80;99.90
66608;DHT22;53462;39.616;8.824;2023-03-01T01:39:20;6.80;99.90
66608;DHT22;53462;39.616;8.824;2023-03-01T01:41:46;6.80;99.90
66608;DHT22;53462;39.616;8.824;2023-03-01T01:44:24;6.80;99.90
66608;DHT22;53462;39.616;8.824;2023-03-01T01:47:00;6.80;99.90
66608;DHT22;53462;39.616;8.824;2023-03-01T01:54:44;6.80;99.90
66608;DHT22;53462;39.616;8.824;2023-03-01T01:57:16;6.80;99.90
66608;DHT22;53462;39.616;8.824;2023-03-01T01:59:46;6.80;99.90
66608;DHT22;53462;39.616;8.824;2023-03-01T02:02:13;6.80;99.90
66608;DHT22;53462;39.616;8.824;2023-03-01T02:04:40;6.70;99.90
66608;DHT22;53462;39.616;8.824;2023-03-01T02:07:16;6.70;99.90
66608;DHT22;53462;39.616;8.824;2023-03-01T02:09:50;6.60;99.90
66608;DHT22;53462;39.616;8.824;2023-03-01T02:12:20;6.60;99.90
66608;DHT22;53462;39.616;8.824;2023-03-01T02:14:47;6.60;99.90
66608;DHT22;53462;39.616;8.824;2023-03-01T02:17:15;6.50;99.90
66608;DHT22;53462;39.616;8.824;2023-03-01T02:22:45;6.50;99.90
66608;DHT22;53462;39.616;8.824;2023-03-01T02:30:43;6.40;99.90
66608;DHT22;53462;39.616;8.824;2023-03-01T02:33:28;6.30;99.90
66608;DHT22;53462;39.616;8.824;2023-03-01T02:36:05;6.30;99.90
66608;DHT22;53462;39.616;8.824;2023-03-01T02:38:33;6.30;99.90
66608;DHT22;53462;39.616;8.824;2023-03-01T02:40:59;6.30;99.90
66608;DHT22;53462;39.616;8.824;2023-03-01T02:43:30;6.40;99.90
66608;DHT22;53462;39.616;8.824;2023-03-01T02:46:14;6.40;99.90
66608;DHT22;53462;39.616;8.824;2023-03-01T02:48:46;6.40;99.90
66608;DHT22;53462;39.616;8.824;2023-03-01T02:56:56;6.30;99.90
66608;DHT22;53462;39.616;8.824;2023-03-01T02:59:27;6.30;99.90
66608;DHT22;53462;39.616;8.824;2023-03-01T03:01:54;6.30;99.90
66608;DHT22;53462;39.616;8.824;2023-03-01T03:04:20;6.30;99.90
66608;DHT22;53462;39.616;8.824;2023-03-01T03:06:50;6.20;99.90
66608;DHT22;53462;39.616;8.824;2023-03-01T03:09:17;6.20;99.90
66608;DHT22;53462;39.616;8.824;2023-03-01T03:11:44;6.20;99.90
66608;DHT22;53462;39.616;8.824;2023-03-01T03:14:12;6.20;99.90
66608;DHT22;53462;39.616;8.824;2023-03-01T03:16:49;5.90;99.90
66608;DHT22;53462;39.616;8.824;2023-03-01T03:19:16;5.70;99.90
66608;DHT22;53462;39.616;8.824;2023-03-01T03:21:42;5.60;99.90
66608;DHT22;53462;39.616;8.824;2023-03-01T03:24:08;5.70;99.90
66608;DHT22;53462;39.616;8.824;2023-03-01T03:26:34;5.50;99.90
66608;DHT22;53462;39.616;8.824;2023-03-01T03:29:00;5.50;99.90
66608;DHT22;53462;39.616;8.824;2023-03-01T03:31:27;5.50;99.90
66608;DHT22;53462;39.616;8.824;2023-03-01T03:33:53;5.60;99.90
66608;DHT22;53462;39.616;8.824;2023-03-01T03:36:22;5.70;99.90
66608;DHT22;53462;39.616;8.824;2023-03-01T03:38:48;5.80;99.90
66608;DHT22;53462;39.616;8.824;2023-03-01T03:41:15;6.10;99.90
66608;DHT22;53462;39.616;8.824;2023-03-01T03:43:42;6.20;99.90
66608;DHT22;53462;39.616;8.824;2023-03-01T03:46:10;6.10;99.90
66608;DHT22;53462;39.616;8.824;2023-03-01T03:48:41;6.10;99.90
66608;DHT22;53462;39.616;8.824;2023-03-01T03:51:11;6.10;99.90
66608;DHT22;53462;39.616;8.824;2023-03-01T03:53:37;6.10;99.90
66608;DHT22;53462;39.616;8.824;2023-03-01T03:56:03;5.80;99.90
66608;DHT22;53462;39.616;8.824;2023-03-01T03:58:29;5.80;99.90
66608;DHT22;53462;39.616;8.824;2023-03-01T04:00:57;5.70;99.90
66608;DHT22;53462;39.616;8.824;2023-03-01T04:03:25;5.60;99.90
66608;DHT22;53462;39.616;8.824;2023-03-01T04:05:51;5.50;99.90
66608;DHT22;53462;39.616;8.824;2023-03-01T04:08:22;5.30;99.90
66608;DHT22;53462;39.616;8.824;2023-03-01T04:10:51;5.40;99.90
66608;DHT22;53462;39.616;8.824;2023-03-01T04:13:19;5.40;99.90
66608;DHT22;53462;39.616;8.824;2023-03-01T04:15:53;5.40;99.90
66608;DHT22;53462;39.616;8.824;2023-03-01T04:18:20;5.40;99.90
66608;DHT22;53462;39.616;8.824;2023-03-01T04:20:47;5.30;99.90
66608;DHT22;53462;39.616;8.824;2023-03-01T04:23:18;5.30;99.90
66608;DHT22;53462;39.616;8.824;2023-03-01T04:25:57;5.20;99.90
66608;DHT22;53462;39.616;8.824;2023-03-01T04:28:27;5.20;99.90
66608;DHT22;53462;39.616;8.824;2023-03-01T04:30:55;5.10;99.90
66608;DHT22;53462;39.616;8.824;2023-03-01T04:33:21;5.10;99.90
66608;DHT22;53462;39.616;8.824;2023-03-01T04:35:48;5.00;99.90
66608;DHT22;53462;39.616;8.824;2023-03-01T04:38:18;5.00;99.90
66608;DHT22;53462;39.616;8.824;2023-03-01T04:40:44;5.10;99.90
66608;DHT22;53462;39.616;8.824;2023-03-01T04:43:12;5.00;99.90
66608;DHT22;53462;39.616;8.824;2023-03-01T04:45:41;4.90;99.90
66608;DHT22;53462;39.616;8.824;2023-03-01T04:48:07;4.90;99.90
66608;DHT22;53462;39.616;8.824;2023-03-01T04:50:33;4.90;99.90
66608;DHT22;53462;39.616;8.824;2023-03-01T04:52:58;5.00;99.90
66608;DHT22;53462;39.616;8.824;2023-03-01T04:55:26;5.00;99.90
66608;DHT22;53462;39.616;8.824;2023-03-01T04:57:52;5.10;99.90
66608;DHT22;53462;39.616;8.824;2023-03-01T05:00:19;5.20;99.90
66608;DHT22;53462;39.616;8.824;2023-03-01T05:02:54;5.30;99.90
66608;DHT22;53462;39.616;8.824;2023-03-01T05:07:53;5.30;99.90
66608;DHT22;53462;39.616;8.824;2023-03-01T05:10:19;5.40;99.90
66608;DHT22;53462;39.616;8.824;2023-03-01T05:12:45;5.50;99.90
66608;DHT22;53462;39.616;8.824;2023-03-01T05:15:12;5.50;99.90
66608;DHT22;53462;39.616;8.824;2023-03-01T05:17:38;5.80;99.90
66608;DHT22;53462;39.616;8.824;2023-03-01T05:20:04;5.90;99.90
66608;DHT22;53462;39.616;8.824;2023-03-01T05:22:34;6.00;99.90
66608;DHT22;53462;39.616;8.824;2023-03-01T05:25:01;6.10;99.90
66608;DHT22;53462;39.616;8.824;2023-03-01T05:27:27;6.10;99.90
66608;DHT22;53462;39.616;8.824;2023-03-01T05:29:53;6.30;99.90
66608;DHT22;53462;39.616;8.824;2023-03-01T05:32:19;6.50;99.90
66608;DHT22;53462;39.616;8.824;2023-03-01T05:34:46;6.70;99.90
66608;DHT22;53462;39.616;8.824;2023-03-01T05:37:12;6.70;99.90
66608;DHT22;53462;39.616;8.824;2023-03-01T05:39:39;6.60;99.90
66608;DHT22;53462;39.616;8.824;2023-03-01T05:42:05;6.50;99.90
66608;DHT22;53462;39.616;8.824;2023-03-01T05:44:31;6.40;99.90
66608;DHT22;53462;39.616;8.824;2023-03-01T05:46:57;6.30;99.90
66608;DHT22;53462;39.616;8.824;2023-03-01T05:49:23;6.10;99.90
66608;DHT22;53462;39.616;8.824;2023-03-01T05:51:52;5.90;99.90
66608;DHT22;53462;39.616;8.824;2023-03-01T05:54:19;5.80;99.90
66608;DHT22;53462;39.616;8.824;2023-03-01T05:56:45;5.80;99.90
66608;DHT22;53462;39.616;8.824;2023-03-01T05:59:11;5.70;99.90
66608;DHT22;53462;39.616;8.824;2023-03-01T06:01:37;5.70;99.90
66608;DHT22;53462;39.616;8.824;2023-03-01T06:04:04;5.60;99.90
66608;DHT22;53462;39.616;8.824;2023-03-01T06:06:33;5.60;99.90
66608;DHT22;53462;39.616;8.824;2023-03-01T06:08:59;5.70;99.90
66608;DHT22;53462;39.616;8.824;2023-03-01T06:11:25;5.70;99.90
66608;DHT22;53462;39.616;8.824;2023-03-01T06:13:51;5.80;99.90
66608;DHT22;53462;39.616;8.824;2023-03-01T06:16:17;5.80;99.90
66608;DHT22;53462;39.616;8.824;2023-03-01T06:18:43;5.90;99.90
66608;DHT22;53462;39.616;8.824;2023-03-01T06:21:09;5.90;99.90
66608;DHT22;53462;39.616;8.824;2023-03-01T06:23:35;5.90;99.90
66608;DHT22;53462;39.616;8.824;2023-03-01T06:26:06;6.00;99.90
66608;DHT22;53462;39.616;8.824;2023-03-01T06:28:32;6.10;99.90
66608;DHT22;53462;39.616;8.824;2023-03-01T06:30:58;6.20;99.90
66608;DHT22;53462;39.616;8.824;2023-03-01T06:33:24;6.30;99.90
66608;DHT22;53462;39.616;8.824;2023-03-01T06:35:51;6.40;99.90
66608;DHT22;53462;39.616;8.824;2023-03-01T06:38:17;6.60;99.90
66608;DHT22;53462;39.616;8.824;2023-03-01T06:40:45;6.70;99.90
66608;DHT22;53462;39.616;8.824;2023-03-01T06:43:16;6.80;99.90
66608;DHT22;53462;39.616;8.824;2023-03-01T06:45:42;7.00;99.90
66608;DHT22;53462;39.616;8.824;2023-03-01T06:48:08;7.20;99.90
66608;DHT22;53462;39.616;8.824;2023-03-01T06:50:35;7.30;99.90
66608;DHT22;53462;39.616;8.824;2023-03-01T06:53:01;7.30;99.90
66608;DHT22;53462;39.616;8.824;2023-03-01T06:55:28;7.30;99.90
66608;DHT22;53462;39.616;8.824;2023-03-01T06:57:55;7.40;99.90
66608;DHT22;53462;39.616;8.824;2023-03-01T07:00:22;7.50;99.90
66608;DHT22;53462;39.616;8.824;2023-03-01T07:02:48;7.60;99.90
66608;DHT22;53462;39.616;8.824;2023-03-01T07:05:14;7.70;99.90
66608;DHT22;53462;39.616;8.824;2023-03-01T07:07:40;7.70;99.90
66608;DHT22;53462;39.616;8.824;2023-03-01T07:10:06;7.70;99.90
66608;DHT22;53462;39.616;8.824;2023-03-01T07:12:33;7.80;99.90
66608;DHT22;53462;39.616;8.824;2023-03-01T07:14:59;7.80;99.90
66608;DHT22;53462;39.616;8.824;2023-03-01T07:17:24;7.90;99.90
66608;DHT22;53462;39.616;8.824;2023-03-01T07:19:50;8.00;99.90
66608;DHT22;53462;39.616;8.824;2023-03-01T07:22:16;8.00;99.90
66608;DHT22;53462;39.616;8.824;2023-03-01T07:24:43;8.10;99.90
66608;DHT22;53462;39.616;8.824;2023-03-01T07:27:09;8.30;99.90
66608;DHT22;53462;39.616;8.824;2023-03-01T07:29:35;8.50;99.90
66608;DHT22;53462;39.616;8.824;2023-03-01T07:32:04;8.90;99.90
66608;DHT22;53462;39.616;8.824;2023-03-01T07:34:31;9.30;99.90
66608;DHT22;53462;39.616;8.824;2023-03-01T07:36:56;9.80;99.90
66608;DHT22;53462;39.616;8.824;2023-03-01T07:39:22;10.10;99.90
66608;DHT22;53462;39.616;8.824;2023-03-01T07:41:49;10.30;99.90
66608;DHT22;53462;39.616;8.824;2023-03-01T07:44:20;10.50;99.90
66608;DHT22;53462;39.616;8.824;2023-03-01T07:46:46;10.40;99.90
66608;DHT22;53462;39.616;8.824;2023-03-01T07:49:12;9.90;99.90
66608;DHT22;53462;39.616;8.824;2023-03-01T07:51:38;9.70;99.90
66608;DHT22;53462;39.616;8.824;2023-03-01T07:54:04;9.80;99.90
66608;DHT22;53462;39.616;8.824;2023-03-01T07:56:30;9.80;99.90
66608;DHT22;53462;39.616;8.824;2023-03-01T07:58:56;9.50;99.90
66608;DHT22;53462;39.616;8.824;2023-03-01T08:01:22;9.30;99.90
66608;DHT22;53462;39.616;8.824;2023-03-01T08:03:48;9.30;99.90
66608;DHT22;53462;39.616;8.824;2023-03-01T08:06:15;9.20;99.90
66608;DHT22;53462;39.616;8.824;2023-03-01T08:08:45;9.10;99.90
66608;DHT22;53462;39.616;8.824;2023-03-01T08:11:13;9.20;99.90
66608;DHT22;53462;39.616;8.824;2023-03-01T08:13:39;9.20;99.90
66608;DHT22;53462;39.616;8.824;2023-03-01T08:16:08;9.20;99.90
66608;DHT22;53462;39.616;8.824;2023-03-01T08:18:34;9.20;99.90
66608;DHT22;53462;39.616;8.824;2023-03-01T08:21:07;9.20;99.90
66608;DHT22;53462;39.616;8.824;2023-03-01T08:23:34;9.20;99.90
66608;DHT22;53462;39.616;8.824;2023-03-01T08:26:20;9.30;99.90
66608;DHT22;53462;39.616;8.824;2023-03-01T08:28:47;9.30;99.90
66608;DHT22;53462;39.616;8.824;2023-03-01T08:31:19;9.40;99.90
66608;DHT22;53462;39.616;8.824;2023-03-01T08:33:46;9.60;99.90
66608;DHT22;53462;39.616;8.824;2023-03-01T08:36:17;9.80;99.90
66608;DHT22;53462;39.616;8.824;2023-03-01T08:38:44;10.00;99.90
66608;DHT22;53462;39.616;8.824;2023-03-01T08:41:09;10.10;99.90
66608;DHT22;53462;39.616;8.824;2023-03-01T08:43:35;10.30;99.90
66608;DHT22;53462;39.616;8.824;2023-03-01T08:46:01;10.50;99.90
66608;DHT22;53462;39.616;8.824;2023-03-01T08:48:28;12.30;99.90
66608;DHT22;53462;39.616;8.824;2023-03-01T08:50:54;14.30;97.30
66608;DHT22;53462;39.616;8.824;2023-03-01T08:53:20;15.80;89.90
66608;DHT22;53462;39.616;8.824;2023-03-01T08:55:46;15.10;85.20
66608;DHT22;53462;39.616;8.824;2023-03-01T08:58:12;13.30;86.70
66608;DHT22;53462;39.616;8.824;2023-03-01T09:00:38;12.40;93.20
66608;DHT22;53462;39.616;8.824;2023-03-01T09:03:04;11.70;96.80
66608;DHT22;53462;39.616;8.824;2023-03-01T09:05:33;11.60;99.90
66608;DHT22;53462;39.616;8.824;2023-03-01T09:07:59;11.50;99.90
66608;DHT22;53462;39.616;8.824;2023-03-01T09:10:25;11.20;99.90
66608;DHT22;53462;39.616;8.824;2023-03-01T09:12:51;11.10;99.90
66608;DHT22;53462;39.616;8.824;2023-03-01T09:15:17;11.10;99.90
66608;DHT22;53462;39.616;8.824;2023-03-01T09:17:46;11.20;99.90
66608;DHT22;53462;39.616;8.824;2023-03-01T09:20:12;11.40;99.90
66608;DHT22;53462;39.616;8.824;2023-03-01T09:22:38;11.70;99.90
66608;DHT22;53462;39.616;8.824;2023-03-01T09:25:04;12.80;99.90
66608;DHT22;53462;39.616;8.824;2023-03-01T09:27:30;13.30;97.50
66608;DHT22;53462;39.616;8.824;2023-03-01T09:29:56;14.60;93.70
66608;DHT22;53462;39.616;8.824;2023-03-01T09:32:22;16.50;84.60
66608;DHT22;53462;39.616;8.824;2023-03-01T09:34:48;17.70;74.30
66608;DHT22;53462;39.616;8.824;2023-03-01T09:37:33;18.80;65.40
66608;DHT22;53462;39.616;8.824;2023-03-01T09:40:00;20.20;59.30
66608;DHT22;53462;39.616;8.824;2023-03-01T09:42:27;21.00;53.30
66608;DHT22;53462;39.616;8.824;2023-03-01T09:45:40;21.20;52.80
66608;DHT22;53462;39.616;8.824;2023-03-01T09:48:16;20.30;53.70
66608;DHT22;53462;39.616;8.824;2023-03-01T09:50:43;18.50;56.80
66608;DHT22;53462;39.616;8.824;2023-03-01T09:53:21;17.80;64.80
66608;DHT22;53462;39.616;8.824;2023-03-01T09:56:00;17.50;65.20
66608;DHT22;53462;39.616;8.824;2023-03-01T10:09:37;15.40;74.20
66608;DHT22;53462;39.616;8.824;2023-03-01T10:12:12;15.60;73.60
66608;DHT22;53462;39.616;8.824;2023-03-01T10:14:47;15.70;73.10
66608;DHT22;53462;39.616;8.824;2023-03-01T10:18:09;16.50;71.20
66608;DHT22;53462;39.616;8.824;2023-03-01T10:20:33;15.50;71.00
66608;DHT22;53462;39.616;8.824;2023-03-01T10:23:02;15.70;74.00
66608;DHT22;53462;39.616;8.824;2023-03-01T10:28:40;17.00;69.30
66608;DHT22;53462;39.616;8.824;2023-03-01T10:31:14;17.20;65.80
66608;DHT22;53462;39.616;8.824;2023-03-01T10:33:41;17.70;65.10
66608;DHT22;53462;39.616;8.824;2023-03-01T10:36:07;17.70;63.80
66608;DHT22;53462;39.616;8.824;2023-03-01T10:38:54;17.80;61.10
66608;DHT22;53462;39.616;8.824;2023-03-01T10:41:26;18.00;59.90
66608;DHT22;53462;39.616;8.824;2023-03-01T10:44:01;18.10;59.00
66608;DHT22;53462;39.616;8.824;2023-03-01T10:46:37;18.40;58.20
66608;DHT22;53462;39.616;8.824;2023-03-01T10:49:21;17.80;55.30
66608;DHT22;53462;39.616;8.824;2023-03-01T10:51:49;16.60;59.00
66608;DHT22;53462;39.616;8.824;2023-03-01T10:56:56;16.20;62.80
66608;DHT22;53462;39.616;8.824;2023-03-01T10:59:36;15.30;61.90
66608;DHT22;53462;39.616;8.824;2023-03-01T11:02:30;14.80;65.50
66608;DHT22;53462;39.616;8.824;2023-03-01T11:07:29;14.50;68.40
66608;DHT22;53462;39.616;8.824;2023-03-01T11:09:55;14.90;69.70
66608;DHT22;53462;39.616;8.824;2023-03-01T11:12:21;15.70;69.30
66608;DHT22;53462;39.616;8.824;2023-03-01T11:14:53;16.60;65.50
66608;DHT22;53462;39.616;8.824;2023-03-01T11:17:30;16.20;65.10
66608;DHT22;53462;39.616;8.824;2023-03-01T11:20:17;15.80;67.50
66608;DHT22;53462;39.616;8.824;2023-03-01T11:22:55;15.10;65.20
66608;DHT22;53462;39.616;8.824;2023-03-01T11:25:26;14.00;67.80
66608;DHT22;53462;39.616;8.824;2023-03-01T11:27:54;13.30;71.70
66608;DHT22;53462;39.616;8.824;2023-03-01T11:30:40;13.20;73.20
66608;DHT22;53462;39.616;8.824;2023-03-01T11:36:07;13.10;73.40
66608;DHT22;53462;39.616;8.824;2023-03-01T11:38:36;12.90;74.90
66608;DHT22;53462;39.616;8.824;2023-03-01T11:41:14;12.80;74.40
66608;DHT22;53462;39.616;8.824;2023-03-01T11:43:59;12.50;75.20
66608;DHT22;53462;39.616;8.824;2023-03-01T11:57:04;12.90;75.60
66608;DHT22;53462;39.616;8.824;2023-03-01T11:59:44;12.70;74.20
66608;DHT22;53462;39.616;8.824;2023-03-01T12:02:36;13.00;74.20
66608;DHT22;53462;39.616;8.824;2023-03-01T12:10:28;13.30;70.10
66608;DHT22;53462;39.616;8.824;2023-03-01T12:13:47;13.60;69.00
66608;DHT22;53462;39.616;8.824;2023-03-01T12:21:44;14.10;65.20
66608;DHT22;53462;39.616;8.824;2023-03-01T12:32:23;14.20;65.70
66608;DHT22;53462;39.616;8.824;2023-03-01T12:43:39;16.70;60.80
66608;DHT22;53462;39.616;8.824;2023-03-01T12:51:29;15.90;61.40
66608;DHT22;53462;39.616;8.824;2023-03-01T12:53:57;15.30;59.70
66608;DHT22;53462;39.616;8.824;2023-03-01T12:56:28;15.30;61.40
66608;DHT22;53462;39.616;8.824;2023-03-01T13:09:47;15.10;60.00
66608;DHT22;53462;39.616;8.824;2023-03-01T13:15:28;15.90;57.60
66608;DHT22;53462;39.616;8.824;2023-03-01T13:18:00;16.30;56.50
66608;DHT22;53462;39.616;8.824;2023-03-01T13:20:46;16.20;54.70
66608;DHT22;53462;39.616;8.824;2023-03-01T13:26:01;15.90;57.10
66608;DHT22;53462;39.616;8.824;2023-03-01T13:33:58;15.70;55.40
66608;DHT22;53462;39.616;8.824;2023-03-01T13:46:47;16.70;57.80
66608;DHT22;53462;39.616;8.824;2023-03-01T13:49:16;16.90;56.70
66608;DHT22;53462;39.616;8.824;2023-03-01T13:51:47;16.70;57.80
66608;DHT22;53462;39.616;8.824;2023-03-01T13:54:15;16.30;54.50
66608;DHT22;53462;39.616;8.824;2023-03-01T13:56:43;16.40;56.60
66608;DHT22;53462;39.616;8.824;2023-03-01T13:59:18;16.30;57.60
66608;DHT22;53462;39.616;8.824;2023-03-01T14:01:44;15.80;58.10
66608;DHT22;53462;39.616;8.824;2023-03-01T14:04:28;16.50;57.30
66608;DHT22;53462;39.616;8.824;2023-03-01T14:07:29;16.30;56.60
66608;DHT22;53462;39.616;8.824;2023-03-01T14:10:01;16.10;56.60
66608;DHT22;53462;39.616;8.824;2023-03-01T14:12:49;15.70;58.30
66608;DHT22;53462;39.616;8.824;2023-03-01T14:15:24;15.30;59.90
66608;DHT22;53462;39.616;8.824;2023-03-01T14:17:58;15.50;60.20
66608;DHT22;53462;39.616;8.824;2023-03-01T14:20:37;15.70;59.10
66608;DHT22;53462;39.616;8.824;2023-03-01T14:23:11;15.40;60.30
66608;DHT22;53462;39.616;8.824;2023-03-01T14:25:38;15.90;59.30
66608;DHT22;53462;39.616;8.824;2023-03-01T14:28:19;16.00;59.30
66608;DHT22;53462;39.616;8.824;2023-03-01T14:30:48;16.00;60.50
66608;DHT22;53462;39.616;8.824;2023-03-01T14:33:35;16.00;59.80
66608;DHT22;53462;39.616;8.824;2023-03-01T14:36:11;15.40;60.20
66608;DHT22;53462;39.616;8.824;2023-03-01T14:38:43;14.80;62.70
66608;DHT22;53462;39.616;8.824;2023-03-01T14:41:18;14.10;65.10
66608;DHT22;53462;39.616;8.824;2023-03-01T14:43:46;13.70;67.00
66608;DHT22;53462;39.616;8.824;2023-03-01T14:48:53;13.20;69.50
66608;DHT22;53462;39.616;8.824;2023-03-01T14:51:20;12.90;69.80
66608;DHT22;53462;39.616;8.824;2023-03-01T14:53:46;12.60;72.60
66608;DHT22;53462;39.616;8.824;2023-03-01T14:56:14;12.40;73.50
66608;DHT22;53462;39.616;8.824;2023-03-01T14:58:41;12.50;74.90
66608;DHT22;53462;39.616;8.824;2023-03-01T15:01:11;12.60;74.90
66608;DHT22;53462;39.616;8.824;2023-03-01T15:03:50;12.40;75.20
66608;DHT22;53462;39.616;8.824;2023-03-01T15:09:37;12.40;78.50
66608;DHT22;53462;39.616;8.824;2023-03-01T15:14:56;12.30;80.70
66608;DHT22;53462;39.616;8.824;2023-03-01T15:17:34;12.60;81.40
66608;DHT22;53462;39.616;8.824;2023-03-01T15:20:02;12.60;78.40
66608;DHT22;53462;39.616;8.824;2023-03-01T15:22:30;12.40;77.80
66608;DHT22;53462;39.616;8.824;2023-03-01T15:24:56;12.30;77.80
66608;DHT22;53462;39.616;8.824;2023-03-01T15:27:24;12.40;78.70
66608;DHT22;53462;39.616;8.824;2023-03-01T15:29:57;12.50;79.40
66608;DHT22;53462;39.616;8.824;2023-03-01T15:32:31;12.50;79.60
66608;DHT22;53462;39.616;8.824;2023-03-01T15:34:58;12.50;79.90
66608;DHT22;53462;39.616;8.824;2023-03-01T15:37:44;12.40;80.90
66608;DHT22;53462;39.616;8.824;2023-03-01T15:40:23;12.50;81.30
66608;DHT22;53462;39.616;8.824;2023-03-01T15:46:04;12.70;83.20
66608;DHT22;53462;39.616;8.824;2023-03-01T15:48:30;12.80;82.40
66608;DHT22;53462;39.616;8.824;2023-03-01T15:50:58;13.00;82.30
66608;DHT22;53462;39.616;8.824;2023-03-01T15:53:27;12.90;79.70
66608;DHT22;53462;39.616;8.824;2023-03-01T15:55:53;12.50;78.60
66608;DHT22;53462;39.616;8.824;2023-03-01T15:58:23;12.50;79.60
66608;DHT22;53462;39.616;8.824;2023-03-01T16:00:50;12.50;80.20
66608;DHT22;53462;39.616;8.824;2023-03-01T16:03:22;12.30;78.50
66608;DHT22;53462;39.616;8.824;2023-03-01T16:05:49;12.10;79.90
66608;DHT22;53462;39.616;8.824;2023-03-01T16:08:16;11.90;80.70
66608;DHT22;53462;39.616;8.824;2023-03-01T16:10:43;11.70;82.40
66608;DHT22;53462;39.616;8.824;2023-03-01T16:13:12;11.40;83.90
66608;DHT22;53462;39.616;8.824;2023-03-01T16:15:38;11.50;85.10
66608;DHT22;53462;39.616;8.824;2023-03-01T16:18:05;11.40;85.20
66608;DHT22;53462;39.616;8.824;2023-03-01T16:20:34;11.20;86.70
66608;DHT22;53462;39.616;8.824;2023-03-01T16:23:02;11.30;87.10
66608;DHT22;53462;39.616;8.824;2023-03-01T16:25:29;11.10;87.50
66608;DHT22;53462;39.616;8.824;2023-03-01T16:27:55;11.00;88.40
66608;DHT22;53462;39.616;8.824;2023-03-01T16:30:24;10.90;89.10
66608;DHT22;53462;39.616;8.824;2023-03-01T16:32:50;10.80;89.70
66608;DHT22;53462;39.616;8.824;2023-03-01T16:35:18;10.80;90.50
66608;DHT22;53462;39.616;8.824;2023-03-01T16:37:45;10.80;91.10
66608;DHT22;53462;39.616;8.824;2023-03-01T16:40:21;10.70;91.40
66608;DHT22;53462;39.616;8.824;2023-03-01T16:42:48;10.70;91.80
66608;DHT22;53462;39.616;8.824;2023-03-01T16:45:15;10.60;92.40
66608;DHT22;53462;39.616;8.824;2023-03-01T16:47:43;10.40;93.60
66608;DHT22;53462;39.616;8.824;2023-03-01T16:50:09;10.50;94.00
66608;DHT22;53462;39.616;8.824;2023-03-01T16:52:35;10.40;94.40
66608;DHT22;53462;39.616;8.824;2023-03-01T16:55:06;10.50;95.10
66608;DHT22;53462;39.616;8.824;2023-03-01T16:57:37;10.30;95.00
66608;DHT22;53462;39.616;8.824;2023-03-01T17:00:04;10.30;95.90
66608;DHT22;53462;39.616;8.824;2023-03-01T17:02:33;10.30;96.40
66608;DHT22;53462;39.616;8.824;2023-03-01T17:04:59;10.30;96.70
66608;DHT22;53462;39.616;8.824;2023-03-01T17:07:25;10.40;97.50
66608;DHT22;53462;39.616;8.824;2023-03-01T17:09:51;10.30;98.00
66608;DHT22;53462;39.616;8.824;2023-03-01T17:12:17;10.50;98.40
66608;DHT22;53462;39.616;8.824;2023-03-01T17:14:43;10.40;98.30
66608;DHT22;53462;39.616;8.824;2023-03-01T17:17:09;10.40;98.00
66608;DHT22;53462;39.616;8.824;2023-03-01T17:19:36;10.40;98.30
66608;DHT22;53462;39.616;8.824;2023-03-01T17:22:07;10.40;98.50
66608;DHT22;53462;39.616;8.824;2023-03-01T17:24:35;10.50;98.50
66608;DHT22;53462;39.616;8.824;2023-03-01T17:27:01;10.50;98.20
66608;DHT22;53462;39.616;8.824;2023-03-01T17:29:27;10.40;98.10
66608;DHT22;53462;39.616;8.824;2023-03-01T17:31:53;10.50;98.50
66608;DHT22;53462;39.616;8.824;2023-03-01T17:34:22;10.40;98.80
66608;DHT22;53462;39.616;8.824;2023-03-01T17:36:48;10.40;99.20
66608;DHT22;53462;39.616;8.824;2023-03-01T17:39:17;10.30;99.10
66608;DHT22;53462;39.616;8.824;2023-03-01T17:41:45;10.20;99.70
66608;DHT22;53462;39.616;8.824;2023-03-01T17:44:11;10.20;99.90
66608;DHT22;53462;39.616;8.824;2023-03-01T17:46:37;10.10;99.90
66608;DHT22;53462;39.616;8.824;2023-03-01T17:49:03;10.00;99.90
66608;DHT22;53462;39.616;8.824;2023-03-01T17:51:29;9.90;99.90
66608;DHT22;53462;39.616;8.824;2023-03-01T17:53:55;9.90;99.90
66608;DHT22;53462;39.616;8.824;2023-03-01T17:56:21;10.00;99.90
66608;DHT22;53462;39.616;8.824;2023-03-01T17:58:47;10.00;99.90
66608;DHT22;53462;39.616;8.824;2023-03-01T18:01:16;10.10;99.90
66608;DHT22;53462;39.616;8.824;2023-03-01T18:03:42;10.00;99.90
66608;DHT22;53462;39.616;8.824;2023-03-01T18:06:29;10.20;99.90